sensor_id;sensor_type;location;lat;lon;timestamp;P1;durP1;ratioP1;P2;durP2;ratioP2
1831;SDS011;1680;48.106;11.708;2024-03-06T00:01:01;13.97;;;12.30;;
1831;SDS011;1680;48.106;11.708;2024-03-06T00:03:28;13.90;;;11.93;;
1831;SDS011;1680;48.106;11.708;2024-03-06T00:05:55;14.13;;;12.50;;
1831;SDS011;1680;48.106;11.708;2024-03-06T00:08:21;13.83;;;12.23;;
1831;SDS011;1680;48.106;11.708;2024-03-06T00:10:49;13.90;;;12.40;;
1831;SDS011;1680;48.106;11.708;2024-03-06T00:13:17;13.00;;;11.60;;
1831;SDS011;1680;48.106;11.708;2024-03-06T00:15:44;13.90;;;12.43;;
1831;SDS011;1680;48.106;11.708;2024-03-06T00:18:11;15.40;;;12.30;;
1831;SDS011;1680;48.106;11.708;2024-03-06T00:20:38;15.40;;;12.20;;
1831;SDS011;1680;48.106;11.708;2024-03-06T00:23:07;13.93;;;12.33;;
1831;SDS011;1680;48.106;11.708;2024-03-06T00:25:34;14.07;;;12.27;;
1831;SDS011;1680;48.106;11.708;2024-03-06T00:28:01;16.60;;;13.57;;
1831;SDS011;1680;48.106;11.708;2024-03-06T00:30:29;14.80;;;12.70;;
1831;SDS011;1680;48.106;11.708;2024-03-06T00:32:56;15.17;;;13.10;;
1831;SDS011;1680;48.106;11.708;2024-03-06T00:35:24;15.03;;;13.00;;
1831;SDS011;1680;48.106;11.708;2024-03-06T00:37:51;16.60;;;13.60;;
1831;SDS011;1680;48.106;11.708;2024-03-06T00:40:20;16.70;;;14.40;;
1831;SDS011;1680;48.106;11.708;2024-03-06T00:42:47;15.87;;;12.70;;
1831;SDS011;1680;48.106;11.708;2024-03-06T00:45:13;15.93;;;14.23;;
1831;SDS011;1680;48.106;11.708;2024-03-06T00:47:42;15.50;;;13.20;;
1831;SDS011;1680;48.106;11.708;2024-03-06T00:50:09;13.63;;;12.13;;
1831;SDS011;1680;48.106;11.708;2024-03-06T00:52:36;15.10;;;13.40;;
1831;SDS011;1680;48.106;11.708;2024-03-06T00:55:03;15.80;;;13.80;;
1831;SDS011;1680;48.106;11.708;2024-03-06T00:57:30;15.87;;;13.33;;
1831;SDS011;1680;48.106;11.708;2024-03-06T00:59:57;13.83;;;12.33;;
1831;SDS011;1680;48.106;11.708;2024-03-06T01:02:24;15.53;;;13.50;;
1831;SDS011;1680;48.106;11.708;2024-03-06T01:04:53;14.90;;;13.27;;
1831;SDS011;1680;48.106;11.708;2024-03-06T01:07:20;16.43;;;14.03;;
1831;SDS011;1680;48.106;11.708;2024-03-06T01:09:48;15.10;;;13.50;;
1831;SDS011;1680;48.106;11.708;2024-03-06T01:12:16;15.20;;;13.20;;
1831;SDS011;1680;48.106;11.708;2024-03-06T01:14:43;17.27;;;14.33;;
1831;SDS011;1680;48.106;11.708;2024-03-06T01:17:10;15.20;;;13.60;;
1831;SDS011;1680;48.106;11.708;2024-03-06T01:19:37;16.77;;;13.33;;
1831;SDS011;1680;48.106;11.708;2024-03-06T01:22:05;16.03;;;14.10;;
1831;SDS011;1680;48.106;11.708;2024-03-06T01:24:33;13.80;;;12.30;;
1831;SDS011;1680;48.106;11.708;2024-03-06T01:27:00;14.77;;;13.20;;
1831;SDS011;1680;48.106;11.708;2024-03-06T01:29:27;14.50;;;12.63;;
1831;SDS011;1680;48.106;11.708;2024-03-06T01:31:55;14.30;;;12.80;;
1831;SDS011;1680;48.106;11.708;2024-03-06T01:34:22;17.43;;;14.10;;
1831;SDS011;1680;48.106;11.708;2024-03-06T01:36:50;16.33;;;14.30;;
1831;SDS011;1680;48.106;11.708;2024-03-06T01:39:19;18.93;;;15.10;;
1831;SDS011;1680;48.106;11.708;2024-03-06T01:41:46;17.20;;;14.20;;
1831;SDS011;1680;48.106;11.708;2024-03-06T01:44:13;18.90;;;14.53;;
1831;SDS011;1680;48.106;11.708;2024-03-06T01:46:40;16.77;;;13.53;;
1831;SDS011;1680;48.106;11.708;2024-03-06T01:49:08;17.17;;;15.30;;
1831;SDS011;1680;48.106;11.708;2024-03-06T01:51:35;17.00;;;14.50;;
1831;SDS011;1680;48.106;11.708;2024-03-06T01:54:02;16.53;;;13.50;;
1831;SDS011;1680;48.106;11.708;2024-03-06T01:56:32;17.83;;;14.60;;
1831;SDS011;1680;48.106;11.708;2024-03-06T01:58:59;16.90;;;13.60;;
1831;SDS011;1680;48.106;11.708;2024-03-06T02:01:27;17.00;;;13.33;;
1831;SDS011;1680;48.106;11.708;2024-03-06T02:03:54;17.40;;;14.53;;
1831;SDS011;1680;48.106;11.708;2024-03-06T02:06:22;16.70;;;13.77;;
1831;SDS011;1680;48.106;11.708;2024-03-06T02:08:49;17.17;;;13.97;;
1831;SDS011;1680;48.106;11.708;2024-03-06T02:11:17;18.10;;;14.40;;
1831;SDS011;1680;48.106;11.708;2024-03-06T02:13:45;16.53;;;14.37;;
1831;SDS011;1680;48.106;11.708;2024-03-06T02:16:12;15.37;;;13.30;;
1831;SDS011;1680;48.106;11.708;2024-03-06T02:18:50;17.70;;;13.70;;
1831;SDS011;1680;48.106;11.708;2024-03-06T02:21:19;17.77;;;13.87;;
1831;SDS011;1680;48.106;11.708;2024-03-06T02:23:46;16.77;;;12.90;;
1831;SDS011;1680;48.106;11.708;2024-03-06T02:26:12;16.63;;;13.20;;
1831;SDS011;1680;48.106;11.708;2024-03-06T02:28:45;16.60;;;12.57;;
1831;SDS011;1680;48.106;11.708;2024-03-06T02:31:12;16.00;;;13.17;;
1831;SDS011;1680;48.106;11.708;2024-03-06T02:33:39;16.60;;;13.20;;
1831;SDS011;1680;48.106;11.708;2024-03-06T02:36:06;17.07;;;12.87;;
1831;SDS011;1680;48.106;11.708;2024-03-06T02:38:34;18.13;;;12.30;;
1831;SDS011;1680;48.106;11.708;2024-03-06T02:41:02;10.90;;;9.00;;
1831;SDS011;1680;48.106;11.708;2024-03-06T02:43:29;5.77;;;5.17;;
1831;SDS011;1680;48.106;11.708;2024-03-06T02:45:56;3.53;;;3.20;;
1831;SDS011;1680;48.106;11.708;2024-03-06T02:48:23;3.37;;;3.07;;
1831;SDS011;1680;48.106;11.708;2024-03-06T02:50:50;2.90;;;2.70;;
1831;SDS011;1680;48.106;11.708;2024-03-06T02:53:17;3.00;;;2.33;;
1831;SDS011;1680;48.106;11.708;2024-03-06T02:55:45;2.60;;;2.40;;
1831;SDS011;1680;48.106;11.708;2024-03-06T02:58:12;2.33;;;1.80;;
1831;SDS011;1680;48.106;11.708;2024-03-06T03:00:39;2.30;;;2.10;;
1831;SDS011;1680;48.106;11.708;2024-03-06T03:03:06;1.60;;;1.50;;
1831;SDS011;1680;48.106;11.708;2024-03-06T03:05:35;1.83;;;1.73;;
1831;SDS011;1680;48.106;11.708;2024-03-06T03:08:02;1.77;;;1.67;;
1831;SDS011;1680;48.106;11.708;2024-03-06T03:10:31;1.47;;;1.37;;
1831;SDS011;1680;48.106;11.708;2024-03-06T03:13:01;1.40;;;1.30;;
1831;SDS011;1680;48.106;11.708;2024-03-06T03:15:30;1.30;;;1.20;;
1831;SDS011;1680;48.106;11.708;2024-03-06T03:17:57;1.53;;;1.43;;
1831;SDS011;1680;48.106;11.708;2024-03-06T03:20:24;1.80;;;1.70;;
1831;SDS011;1680;48.106;11.708;2024-03-06T03:22:51;1.77;;;1.67;;
1831;SDS011;1680;48.106;11.708;2024-03-06T03:25:18;1.77;;;1.67;;
1831;SDS011;1680;48.106;11.708;2024-03-06T03:27:47;1.90;;;1.80;;
1831;SDS011;1680;48.106;11.708;2024-03-06T03:30:15;2.10;;;1.90;;
1831;SDS011;1680;48.106;11.708;2024-03-06T03:32:42;1.80;;;1.70;;
1831;SDS011;1680;48.106;11.708;2024-03-06T03:35:10;1.90;;;1.80;;
1831;SDS011;1680;48.106;11.708;2024-03-06T03:37:37;2.27;;;1.87;;
1831;SDS011;1680;48.106;11.708;2024-03-06T03:40:05;1.70;;;1.60;;
1831;SDS011;1680;48.106;11.708;2024-03-06T03:42:33;1.63;;;1.53;;
1831;SDS011;1680;48.106;11.708;2024-03-06T03:44:59;1.50;;;1.40;;
1831;SDS011;1680;48.106;11.708;2024-03-06T03:47:29;1.67;;;1.57;;
1831;SDS011;1680;48.106;11.708;2024-03-06T03:49:57;1.80;;;1.70;;
1831;SDS011;1680;48.106;11.708;2024-03-06T03:52:24;1.60;;;1.50;;
1831;SDS011;1680;48.106;11.708;2024-03-06T03:54:51;1.70;;;1.60;;
1831;SDS011;1680;48.106;11.708;2024-03-06T03:57:19;1.60;;;1.50;;
1831;SDS011;1680;48.106;11.708;2024-03-06T03:59:45;1.70;;;1.60;;
1831;SDS011;1680;48.106;11.708;2024-03-06T04:02:13;1.60;;;1.50;;
1831;SDS011;1680;48.106;11.708;2024-03-06T04:04:41;1.57;;;1.47;;
1831;SDS011;1680;48.106;11.708;2024-03-06T04:07:08;1.80;;;1.70;;
1831;SDS011;1680;48.106;11.708;2024-03-06T04:09:35;1.63;;;1.53;;
1831;SDS011;1680;48.106;11.708;2024-03-06T04:12:02;1.40;;;1.30;;
1831;SDS011;1680;48.106;11.708;2024-03-06T04:14:30;1.57;;;1.47;;
1831;SDS011;1680;48.106;11.708;2024-03-06T04:16:57;1.40;;;1.30;;
1831;SDS011;1680;48.106;11.708;2024-03-06T04:19:24;1.50;;;1.40;;
1831;SDS011;1680;48.106;11.708;2024-03-06T04:21:52;1.53;;;1.43;;
1831;SDS011;1680;48.106;11.708;2024-03-06T04:24:19;1.23;;;1.23;;
1831;SDS011;1680;48.106;11.708;2024-03-06T04:26:47;1.50;;;1.40;;
1831;SDS011;1680;48.106;11.708;2024-03-06T04:29:14;1.50;;;1.40;;
1831;SDS011;1680;48.106;11.708;2024-03-06T04:31:41;1.40;;;1.40;;
1831;SDS011;1680;48.106;11.708;2024-03-06T04:34:08;1.50;;;1.40;;
1831;SDS011;1680;48.106;11.708;2024-03-06T04:36:35;1.33;;;1.30;;
1831;SDS011;1680;48.106;11.708;2024-03-06T04:39:03;1.47;;;1.47;;
1831;SDS011;1680;48.106;11.708;2024-03-06T04:41:32;1.43;;;1.37;;
1831;SDS011;1680;48.106;11.708;2024-03-06T04:43:59;1.73;;;1.63;;
1831;SDS011;1680;48.106;11.708;2024-03-06T04:46:26;1.43;;;1.40;;
1831;SDS011;1680;48.106;11.708;2024-03-06T04:48:53;1.77;;;1.67;;
1831;SDS011;1680;48.106;11.708;2024-03-06T04:51:20;2.00;;;1.90;;
1831;SDS011;1680;48.106;11.708;2024-03-06T04:53:47;1.90;;;1.80;;
1831;SDS011;1680;48.106;11.708;2024-03-06T04:56:15;2.00;;;1.90;;
1831;SDS011;1680;48.106;11.708;2024-03-06T04:58:45;1.77;;;1.67;;
1831;SDS011;1680;48.106;11.708;2024-03-06T05:01:12;1.80;;;1.70;;
1831;SDS011;1680;48.106;11.708;2024-03-06T05:03:40;2.00;;;1.90;;
1831;SDS011;1680;48.106;11.708;2024-03-06T05:06:06;2.30;;;2.20;;
1831;SDS011;1680;48.106;11.708;2024-03-06T05:08:34;2.07;;;1.97;;
1831;SDS011;1680;48.106;11.708;2024-03-06T05:11:01;2.23;;;2.03;;
1831;SDS011;1680;48.106;11.708;2024-03-06T05:13:29;2.20;;;2.10;;
1831;SDS011;1680;48.106;11.708;2024-03-06T05:15:56;2.30;;;2.20;;
1831;SDS011;1680;48.106;11.708;2024-03-06T05:18:23;2.10;;;2.00;;
1831;SDS011;1680;48.106;11.708;2024-03-06T05:20:50;1.90;;;1.80;;
1831;SDS011;1680;48.106;11.708;2024-03-06T05:23:17;2.00;;;1.90;;
1831;SDS011;1680;48.106;11.708;2024-03-06T05:25:45;2.00;;;1.90;;
1831;SDS011;1680;48.106;11.708;2024-03-06T05:28:11;2.00;;;1.90;;
1831;SDS011;1680;48.106;11.708;2024-03-06T05:30:40;2.00;;;1.90;;
1831;SDS011;1680;48.106;11.708;2024-03-06T05:33:07;1.90;;;1.80;;
1831;SDS011;1680;48.106;11.708;2024-03-06T05:35:34;2.00;;;1.90;;
1831;SDS011;1680;48.106;11.708;2024-03-06T05:38:01;1.73;;;1.63;;
1831;SDS011;1680;48.106;11.708;2024-03-06T05:40:28;1.80;;;1.70;;
1831;SDS011;1680;48.106;11.708;2024-03-06T05:43:01;1.60;;;1.50;;
1831;SDS011;1680;48.106;11.708;2024-03-06T05:45:28;1.50;;;1.43;;
1831;SDS011;1680;48.106;11.708;2024-03-06T05:47:57;1.47;;;1.37;;
1831;SDS011;1680;48.106;11.708;2024-03-06T05:50:24;1.07;;;1.07;;
1831;SDS011;1680;48.106;11.708;2024-03-06T05:52:51;1.53;;;1.23;;
1831;SDS011;1680;48.106;11.708;2024-03-06T05:55:18;1.77;;;1.67;;
1831;SDS011;1680;48.106;11.708;2024-03-06T05:57:45;1.40;;;1.30;;
1831;SDS011;1680;48.106;11.708;2024-03-06T06:00:12;1.15;;;1.15;;
1831;SDS011;1680;48.106;11.708;2024-03-06T06:02:41;1.50;;;1.40;;
1831;SDS011;1680;48.106;11.708;2024-03-06T06:05:11;1.03;;;1.03;;
1831;SDS011;1680;48.106;11.708;2024-03-06T06:07:38;1.30;;;1.20;;
1831;SDS011;1680;48.106;11.708;2024-03-06T06:10:05;1.60;;;1.50;;
1831;SDS011;1680;48.106;11.708;2024-03-06T06:12:35;1.57;;;1.47;;
1831;SDS011;1680;48.106;11.708;2024-03-06T06:15:02;1.63;;;1.53;;
1831;SDS011;1680;48.106;11.708;2024-03-06T06:17:29;1.47;;;1.40;;
1831;SDS011;1680;48.106;11.708;2024-03-06T06:19:56;1.43;;;1.33;;
1831;SDS011;1680;48.106;11.708;2024-03-06T06:22:24;1.70;;;1.60;;
1831;SDS011;1680;48.106;11.708;2024-03-06T06:24:51;1.43;;;1.33;;
1831;SDS011;1680;48.106;11.708;2024-03-06T06:27:20;1.60;;;1.50;;
1831;SDS011;1680;48.106;11.708;2024-03-06T06:29:47;1.60;;;1.50;;
1831;SDS011;1680;48.106;11.708;2024-03-06T06:32:14;1.50;;;1.40;;
1831;SDS011;1680;48.106;11.708;2024-03-06T06:34:41;1.70;;;1.60;;
1831;SDS011;1680;48.106;11.708;2024-03-06T06:37:08;1.50;;;1.40;;
1831;SDS011;1680;48.106;11.708;2024-03-06T06:39:36;1.60;;;1.50;;
1831;SDS011;1680;48.106;11.708;2024-03-06T06:42:03;1.40;;;1.40;;
1831;SDS011;1680;48.106;11.708;2024-03-06T06:44:30;1.90;;;1.80;;
1831;SDS011;1680;48.106;11.708;2024-03-06T06:46:57;1.80;;;1.70;;
1831;SDS011;1680;48.106;11.708;2024-03-06T06:49:24;2.20;;;2.10;;
1831;SDS011;1680;48.106;11.708;2024-03-06T06:51:51;1.97;;;1.87;;
1831;SDS011;1680;48.106;11.708;2024-03-06T06:54:18;2.00;;;1.80;;
1831;SDS011;1680;48.106;11.708;2024-03-06T06:56:46;1.93;;;1.83;;
1831;SDS011;1680;48.106;11.708;2024-03-06T06:59:12;2.00;;;1.90;;
1831;SDS011;1680;48.106;11.708;2024-03-06T07:01:39;2.23;;;2.13;;
1831;SDS011;1680;48.106;11.708;2024-03-06T07:04:06;2.07;;;1.97;;
1831;SDS011;1680;48.106;11.708;2024-03-06T07:06:33;2.57;;;2.37;;
1831;SDS011;1680;48.106;11.708;2024-03-06T07:09:00;2.30;;;2.20;;
1831;SDS011;1680;48.106;11.708;2024-03-06T07:11:30;2.50;;;2.37;;
1831;SDS011;1680;48.106;11.708;2024-03-06T07:13:58;3.10;;;2.90;;
1831;SDS011;1680;48.106;11.708;2024-03-06T07:16:25;2.60;;;2.40;;
1831;SDS011;1680;48.106;11.708;2024-03-06T07:18:52;2.10;;;1.90;;
1831;SDS011;1680;48.106;11.708;2024-03-06T07:21:19;2.03;;;1.80;;
1831;SDS011;1680;48.106;11.708;2024-03-06T07:23:46;2.90;;;2.40;;
1831;SDS011;1680;48.106;11.708;2024-03-06T07:26:13;2.00;;;1.80;;
1831;SDS011;1680;48.106;11.708;2024-03-06T07:28:40;2.70;;;2.50;;
1831;SDS011;1680;48.106;11.708;2024-03-06T07:31:08;2.30;;;2.20;;
1831;SDS011;1680;48.106;11.708;2024-03-06T07:33:35;2.20;;;2.10;;
1831;SDS011;1680;48.106;11.708;2024-03-06T07:36:03;2.20;;;2.10;;
1831;SDS011;1680;48.106;11.708;2024-03-06T07:38:30;2.10;;;2.00;;
1831;SDS011;1680;48.106;11.708;2024-03-06T07:40:57;2.17;;;2.07;;
1831;SDS011;1680;48.106;11.708;2024-03-06T07:43:24;2.00;;;1.90;;
1831;SDS011;1680;48.106;11.708;2024-03-06T07:45:52;2.30;;;2.10;;
1831;SDS011;1680;48.106;11.708;2024-03-06T07:48:20;1.97;;;1.87;;
1831;SDS011;1680;48.106;11.708;2024-03-06T07:50:47;1.93;;;1.83;;
1831;SDS011;1680;48.106;11.708;2024-03-06T07:53:15;3.08;;;2.40;;
1831;SDS011;1680;48.106;11.708;2024-03-06T07:55:42;2.90;;;2.70;;
1831;SDS011;1680;48.106;11.708;2024-03-06T07:58:09;2.70;;;2.50;;
1831;SDS011;1680;48.106;11.708;2024-03-06T08:00:36;2.30;;;2.10;;
1831;SDS011;1680;48.106;11.708;2024-03-06T08:03:04;2.63;;;2.43;;
1831;SDS011;1680;48.106;11.708;2024-03-06T08:05:32;2.47;;;2.37;;
1831;SDS011;1680;48.106;11.708;2024-03-06T08:07:59;2.60;;;2.40;;
1831;SDS011;1680;48.106;11.708;2024-03-06T08:10:28;2.60;;;2.40;;
1831;SDS011;1680;48.106;11.708;2024-03-06T08:12:56;2.60;;;2.40;;
1831;SDS011;1680;48.106;11.708;2024-03-06T08:15:24;2.03;;;1.93;;
1831;SDS011;1680;48.106;11.708;2024-03-06T08:17:50;2.63;;;2.43;;
1831;SDS011;1680;48.106;11.708;2024-03-06T08:20:17;2.60;;;2.40;;
1831;SDS011;1680;48.106;11.708;2024-03-06T08:22:46;2.33;;;2.23;;
1831;SDS011;1680;48.106;11.708;2024-03-06T08:25:13;2.50;;;2.30;;
1831;SDS011;1680;48.106;11.708;2024-03-06T08:27:40;2.40;;;2.20;;
1831;SDS011;1680;48.106;11.708;2024-03-06T08:30:07;2.90;;;2.63;;
1831;SDS011;1680;48.106;11.708;2024-03-06T08:32:35;2.53;;;2.43;;
1831;SDS011;1680;48.106;11.708;2024-03-06T08:35:02;2.83;;;2.63;;
1831;SDS011;1680;48.106;11.708;2024-03-06T08:37:30;2.20;;;2.10;;
1831;SDS011;1680;48.106;11.708;2024-03-06T08:39:59;2.50;;;2.30;;
1831;SDS011;1680;48.106;11.708;2024-03-06T08:42:27;2.63;;;2.43;;
1831;SDS011;1680;48.106;11.708;2024-03-06T08:44:54;2.83;;;2.63;;
1831;SDS011;1680;48.106;11.708;2024-03-06T08:47:21;2.27;;;2.07;;
1831;SDS011;1680;48.106;11.708;2024-03-06T08:49:48;2.13;;;2.03;;
1831;SDS011;1680;48.106;11.708;2024-03-06T08:52:16;2.30;;;2.20;;
1831;SDS011;1680;48.106;11.708;2024-03-06T08:54:42;2.50;;;2.30;;
1831;SDS011;1680;48.106;11.708;2024-03-06T08:57:11;2.30;;;2.20;;
1831;SDS011;1680;48.106;11.708;2024-03-06T08:59:38;2.20;;;2.10;;
1831;SDS011;1680;48.106;11.708;2024-03-06T09:02:12;3.83;;;1.90;;
1831;SDS011;1680;48.106;11.708;2024-03-06T09:04:39;2.10;;;2.00;;
1831;SDS011;1680;48.106;11.708;2024-03-06T09:07:06;2.10;;;1.90;;
1831;SDS011;1680;48.106;11.708;2024-03-06T09:09:33;1.90;;;1.80;;
1831;SDS011;1680;48.106;11.708;2024-03-06T09:12:01;2.00;;;1.90;;
1831;SDS011;1680;48.106;11.708;2024-03-06T09:14:31;2.00;;;1.90;;
1831;SDS011;1680;48.106;11.708;2024-03-06T09:16:58;3.83;;;3.30;;
1831;SDS011;1680;48.106;11.708;2024-03-06T09:19:25;3.83;;;3.37;;
1831;SDS011;1680;48.106;11.708;2024-03-06T09:21:51;4.00;;;2.53;;
1831;SDS011;1680;48.106;11.708;2024-03-06T09:24:19;2.27;;;2.03;;
1831;SDS011;1680;48.106;11.708;2024-03-06T09:26:47;2.10;;;2.00;;
1831;SDS011;1680;48.106;11.708;2024-03-06T09:29:14;2.20;;;2.10;;
1831;SDS011;1680;48.106;11.708;2024-03-06T09:31:43;2.60;;;2.40;;
1831;SDS011;1680;48.106;11.708;2024-03-06T09:34:10;2.23;;;2.13;;
1831;SDS011;1680;48.106;11.708;2024-03-06T09:36:37;2.23;;;2.13;;
1831;SDS011;1680;48.106;11.708;2024-03-06T09:39:04;2.23;;;2.10;;
1831;SDS011;1680;48.106;11.708;2024-03-06T09:41:33;2.27;;;2.07;;
1831;SDS011;1680;48.106;11.708;2024-03-06T09:44:00;2.47;;;2.27;;
1831;SDS011;1680;48.106;11.708;2024-03-06T09:46:27;2.07;;;1.97;;
1831;SDS011;1680;48.106;11.708;2024-03-06T09:48:56;2.07;;;1.97;;
1831;SDS011;1680;48.106;11.708;2024-03-06T09:51:23;1.70;;;1.60;;
1831;SDS011;1680;48.106;11.708;2024-03-06T09:53:50;2.73;;;2.53;;
1831;SDS011;1680;48.106;11.708;2024-03-06T09:56:18;2.80;;;2.10;;
1831;SDS011;1680;48.106;11.708;2024-03-06T09:58:45;1.90;;;1.80;;
1831;SDS011;1680;48.106;11.708;2024-03-06T10:01:12;1.70;;;1.60;;
1831;SDS011;1680;48.106;11.708;2024-03-06T10:03:40;1.60;;;1.50;;
1831;SDS011;1680;48.106;11.708;2024-03-06T10:06:08;1.73;;;1.63;;
1831;SDS011;1680;48.106;11.708;2024-03-06T10:08:35;2.10;;;2.00;;
1831;SDS011;1680;48.106;11.708;2024-03-06T10:11:03;1.77;;;1.67;;
1831;SDS011;1680;48.106;11.708;2024-03-06T10:13:31;4.23;;;2.40;;
1831;SDS011;1680;48.106;11.708;2024-03-06T10:15:59;2.20;;;2.10;;
1831;SDS011;1680;48.106;11.708;2024-03-06T10:18:26;2.67;;;2.47;;
1831;SDS011;1680;48.106;11.708;2024-03-06T10:20:53;2.57;;;2.40;;
1831;SDS011;1680;48.106;11.708;2024-03-06T10:23:22;2.30;;;2.10;;
1831;SDS011;1680;48.106;11.708;2024-03-06T10:25:50;2.13;;;2.03;;
1831;SDS011;1680;48.106;11.708;2024-03-06T10:28:18;2.50;;;1.70;;
1831;SDS011;1680;48.106;11.708;2024-03-06T10:30:45;2.00;;;1.90;;
1831;SDS011;1680;48.106;11.708;2024-03-06T10:33:13;2.00;;;1.90;;
1831;SDS011;1680;48.106;11.708;2024-03-06T10:35:40;2.30;;;2.10;;
1831;SDS011;1680;48.106;11.708;2024-03-06T10:38:08;2.30;;;2.10;;
1831;SDS011;1680;48.106;11.708;2024-03-06T10:40:38;2.83;;;2.10;;
1831;SDS011;1680;48.106;11.708;2024-03-06T10:43:06;2.40;;;2.20;;
1831;SDS011;1680;48.106;11.708;2024-03-06T10:45:39;2.33;;;2.23;;
1831;SDS011;1680;48.106;11.708;2024-03-06T10:48:07;2.10;;;1.93;;
1831;SDS011;1680;48.106;11.708;2024-03-06T10:50:37;2.30;;;2.20;;
1831;SDS011;1680;48.106;11.708;2024-03-06T10:53:05;2.33;;;2.23;;
1831;SDS011;1680;48.106;11.708;2024-03-06T10:55:35;2.70;;;2.50;;
1831;SDS011;1680;48.106;11.708;2024-03-06T10:58:04;2.40;;;2.30;;
1831;SDS011;1680;48.106;11.708;2024-03-06T11:00:34;2.40;;;2.30;;
1831;SDS011;1680;48.106;11.708;2024-03-06T11:03:03;2.70;;;2.50;;
1831;SDS011;1680;48.106;11.708;2024-03-06T11:05:33;2.73;;;2.53;;
1831;SDS011;1680;48.106;11.708;2024-03-06T11:08:00;2.37;;;2.17;;
1831;SDS011;1680;48.106;11.708;2024-03-06T11:10:31;2.90;;;2.70;;
1831;SDS011;1680;48.106;11.708;2024-03-06T11:12:57;2.93;;;2.73;;
1831;SDS011;1680;48.106;11.708;2024-03-06T11:15:26;3.07;;;2.87;;
1831;SDS011;1680;48.106;11.708;2024-03-06T11:17:53;2.60;;;2.40;;
1831;SDS011;1680;48.106;11.708;2024-03-06T11:20:21;2.70;;;2.50;;
1831;SDS011;1680;48.106;11.708;2024-03-06T11:23:07;2.60;;;2.40;;
1831;SDS011;1680;48.106;11.708;2024-03-06T11:28:21;2.90;;;2.70;;
1831;SDS011;1680;48.106;11.708;2024-03-06T11:30:54;2.97;;;2.73;;
1831;SDS011;1680;48.106;11.708;2024-03-06T11:33:22;2.67;;;2.47;;
1831;SDS011;1680;48.106;11.708;2024-03-06T11:38:31;2.80;;;2.50;;
1831;SDS011;1680;48.106;11.708;2024-03-06T11:40:58;2.90;;;2.70;;
1831;SDS011;1680;48.106;11.708;2024-03-06T11:43:25;2.97;;;2.73;;
1831;SDS011;1680;48.106;11.708;2024-03-06T11:45:54;3.60;;;3.30;;
1831;SDS011;1680;48.106;11.708;2024-03-06T11:48:34;3.03;;;2.73;;
1831;SDS011;1680;48.106;11.708;2024-03-06T11:51:01;3.13;;;2.83;;
1831;SDS011;1680;48.106;11.708;2024-03-06T11:53:30;3.20;;;3.00;;
1831;SDS011;1680;48.106;11.708;2024-03-06T11:55:57;2.80;;;2.60;;
1831;SDS011;1680;48.106;11.708;2024-03-06T11:58:24;2.80;;;2.60;;
1831;SDS011;1680;48.106;11.708;2024-03-06T12:00:51;3.07;;;2.87;;
1831;SDS011;1680;48.106;11.708;2024-03-06T12:03:20;2.90;;;2.70;;
1831;SDS011;1680;48.106;11.708;2024-03-06T12:05:49;3.20;;;3.00;;
1831;SDS011;1680;48.106;11.708;2024-03-06T12:08:16;3.00;;;2.80;;
1831;SDS011;1680;48.106;11.708;2024-03-06T12:10:45;3.57;;;3.27;;
1831;SDS011;1680;48.106;11.708;2024-03-06T12:13:12;3.70;;;3.40;;
1831;SDS011;1680;48.106;11.708;2024-03-06T12:15:42;3.50;;;3.20;;
1831;SDS011;1680;48.106;11.708;2024-03-06T12:18:09;3.23;;;3.03;;
1831;SDS011;1680;48.106;11.708;2024-03-06T12:20:41;3.57;;;3.27;;
1831;SDS011;1680;48.106;11.708;2024-03-06T12:23:18;3.37;;;3.17;;
1831;SDS011;1680;48.106;11.708;2024-03-06T12:25:48;3.60;;;3.30;;
1831;SDS011;1680;48.106;11.708;2024-03-06T12:28:15;2.90;;;2.70;;
1831;SDS011;1680;48.106;11.708;2024-03-06T12:30:43;2.73;;;2.53;;
1831;SDS011;1680;48.106;11.708;2024-03-06T12:33:10;2.90;;;2.70;;
1831;SDS011;1680;48.106;11.708;2024-03-06T12:35:40;2.73;;;2.53;;
1831;SDS011;1680;48.106;11.708;2024-03-06T12:38:14;2.53;;;2.33;;
1831;SDS011;1680;48.106;11.708;2024-03-06T12:40:41;2.80;;;2.60;;
1831;SDS011;1680;48.106;11.708;2024-03-06T12:43:08;4.30;;;3.90;;
1831;SDS011;1680;48.106;11.708;2024-03-06T12:45:36;3.63;;;3.33;;
1831;SDS011;1680;48.106;11.708;2024-03-06T12:48:03;3.10;;;2.90;;
1831;SDS011;1680;48.106;11.708;2024-03-06T12:50:31;5.03;;;4.10;;
1831;SDS011;1680;48.106;11.708;2024-03-06T12:52:58;4.50;;;4.10;;
1831;SDS011;1680;48.106;11.708;2024-03-06T12:55:26;3.80;;;3.50;;
1831;SDS011;1680;48.106;11.708;2024-03-06T12:57:53;3.23;;;2.93;;
1831;SDS011;1680;48.106;11.708;2024-03-06T13:00:20;2.97;;;2.77;;
1831;SDS011;1680;48.106;11.708;2024-03-06T13:02:47;3.20;;;3.00;;
1831;SDS011;1680;48.106;11.708;2024-03-06T13:05:15;3.10;;;2.80;;
1831;SDS011;1680;48.106;11.708;2024-03-06T13:07:42;3.00;;;2.80;;
1831;SDS011;1680;48.106;11.708;2024-03-06T13:10:10;3.10;;;2.90;;
1831;SDS011;1680;48.106;11.708;2024-03-06T13:12:38;3.67;;;3.37;;
1831;SDS011;1680;48.106;11.708;2024-03-06T13:15:06;3.47;;;3.23;;
1831;SDS011;1680;48.106;11.708;2024-03-06T13:17:33;3.57;;;3.27;;
1831;SDS011;1680;48.106;11.708;2024-03-06T13:20:00;3.80;;;3.50;;
1831;SDS011;1680;48.106;11.708;2024-03-06T13:22:29;3.70;;;3.40;;
1831;SDS011;1680;48.106;11.708;2024-03-06T13:24:57;3.17;;;2.97;;
1831;SDS011;1680;48.106;11.708;2024-03-06T13:27:24;3.00;;;2.80;;
1831;SDS011;1680;48.106;11.708;2024-03-06T13:29:52;3.00;;;2.63;;
1831;SDS011;1680;48.106;11.708;2024-03-06T13:32:19;2.20;;;2.10;;
1831;SDS011;1680;48.106;11.708;2024-03-06T13:34:48;4.10;;;3.70;;
1831;SDS011;1680;48.106;11.708;2024-03-06T13:37:15;3.30;;;2.80;;
1831;SDS011;1680;48.106;11.708;2024-03-06T13:39:42;2.90;;;2.70;;
1831;SDS011;1680;48.106;11.708;2024-03-06T13:42:09;3.10;;;2.80;;
1831;SDS011;1680;48.106;11.708;2024-03-06T13:44:36;2.60;;;2.40;;
1831;SDS011;1680;48.106;11.708;2024-03-06T13:47:04;3.07;;;2.77;;
1831;SDS011;1680;48.106;11.708;2024-03-06T13:49:36;2.50;;;2.30;;
1831;SDS011;1680;48.106;11.708;2024-03-06T13:52:04;2.80;;;2.60;;
1831;SDS011;1680;48.106;11.708;2024-03-06T13:54:32;2.50;;;2.30;;
1831;SDS011;1680;48.106;11.708;2024-03-06T13:57:00;2.83;;;2.63;;
1831;SDS011;1680;48.106;11.708;2024-03-06T13:59:28;3.00;;;2.70;;
1831;SDS011;1680;48.106;11.708;2024-03-06T14:01:55;3.00;;;2.80;;
1831;SDS011;1680;48.106;11.708;2024-03-06T14:04:23;3.53;;;3.20;;
1831;SDS011;1680;48.106;11.708;2024-03-06T14:06:50;2.60;;;2.40;;
1831;SDS011;1680;48.106;11.708;2024-03-06T14:09:19;3.30;;;2.60;;
1831;SDS011;1680;48.106;11.708;2024-03-06T14:11:48;3.00;;;2.80;;
1831;SDS011;1680;48.106;11.708;2024-03-06T14:14:16;3.57;;;2.70;;
1831;SDS011;1680;48.106;11.708;2024-03-06T14:16:43;4.30;;;3.90;;
1831;SDS011;1680;48.106;11.708;2024-03-06T14:19:10;3.43;;;3.13;;
1831;SDS011;1680;48.106;11.708;2024-03-06T14:21:38;4.73;;;4.30;;
1831;SDS011;1680;48.106;11.708;2024-03-06T14:24:05;5.50;;;4.10;;
1831;SDS011;1680;48.106;11.708;2024-03-06T14:26:32;3.80;;;3.33;;
1831;SDS011;1680;48.106;11.708;2024-03-06T14:28:59;2.93;;;2.73;;
1831;SDS011;1680;48.106;11.708;2024-03-06T14:31:27;2.40;;;2.20;;
1831;SDS011;1680;48.106;11.708;2024-03-06T14:33:54;4.30;;;2.80;;
1831;SDS011;1680;48.106;11.708;2024-03-06T14:36:21;2.20;;;2.00;;
1831;SDS011;1680;48.106;11.708;2024-03-06T14:38:52;2.40;;;2.20;;
1831;SDS011;1680;48.106;11.708;2024-03-06T14:41:19;2.07;;;1.97;;
1831;SDS011;1680;48.106;11.708;2024-03-06T14:43:46;3.50;;;1.90;;
1831;SDS011;1680;48.106;11.708;2024-03-06T14:46:13;2.60;;;2.07;;
1831;SDS011;1680;48.106;11.708;2024-03-06T14:48:40;2.30;;;2.10;;
1831;SDS011;1680;48.106;11.708;2024-03-06T14:51:07;2.70;;;2.27;;
1831;SDS011;1680;48.106;11.708;2024-03-06T14:53:35;2.30;;;1.80;;
1831;SDS011;1680;48.106;11.708;2024-03-06T14:56:04;2.50;;;2.30;;
1831;SDS011;1680;48.106;11.708;2024-03-06T14:58:31;2.40;;;2.20;;
1831;SDS011;1680;48.106;11.708;2024-03-06T15:00:58;1.83;;;1.73;;
1831;SDS011;1680;48.106;11.708;2024-03-06T15:03:25;1.90;;;1.80;;